createdAt,value
2023-05-10T00:05:21.355Z,101368.39
2023-05-10T00:10:43.744Z,101360.36
2023-05-10T00:16:06.028Z,101361.56
2023-05-10T00:21:29.718Z,101363.05
2023-05-10T00:26:51.974Z,101358.13
2023-05-10T00:32:15.183Z,101355.42
2023-05-10T00:37:37.616Z,101349.03
2023-05-10T00:43:01.772Z,101346.17
2023-05-10T00:48:24.385Z,101335.88
2023-05-10T00:53:48.175Z,101336.38
2023-05-10T00:59:10.615Z,101335.23
2023-05-10T01:04:33.836Z,101332.00
2023-05-10T01:09:56.795Z,101326.48
2023-05-10T01:15:22.030Z,101328.06
2023-05-10T01:20:47.709Z,101322.37
2023-05-10T01:26:50.058Z,101324.64
2023-05-10T01:32:35.524Z,101327.20
2023-05-10T01:38:02.697Z,101315.41
2023-05-10T01:43:30.178Z,101302.48
2023-05-10T01:49:02.261Z,101306.64
2023-05-10T01:54:27.512Z,101300.69
2023-05-10T01:59:53.021Z,101302.03
2023-05-10T02:05:16.865Z,101294.57
2023-05-10T02:10:42.549Z,101294.31
2023-05-10T02:16:10.635Z,101288.97
2023-05-10T02:21:34.962Z,101288.91
2023-05-10T02:26:59.361Z,101280.03
2023-05-10T02:32:23.946Z,101281.36
2023-05-10T02:37:47.809Z,101279.92
2023-05-10T02:43:13.225Z,101280.30
2023-05-10T02:48:35.830Z,101278.58
2023-05-10T02:54:01.383Z,101277.80
2023-05-10T02:59:23.643Z,101272.09
2023-05-10T03:04:46.100Z,101281.33
2023-05-10T03:10:08.973Z,101274.84
2023-05-10T03:15:36.121Z,101274.37
2023-05-10T03:26:41.037Z,101272.34
2023-05-10T03:32:03.420Z,101272.63
2023-05-10T03:37:25.669Z,101278.92
2023-05-10T03:42:47.919Z,101277.67
2023-05-10T03:48:10.990Z,101268.33
2023-05-10T03:53:33.638Z,101271.00
2023-05-10T03:58:56.095Z,101275.60
2023-05-10T04:04:20.029Z,101264.02
2023-05-10T04:09:42.630Z,101262.17
2023-05-10T04:15:04.942Z,101266.66
2023-05-10T04:20:27.703Z,101267.64
2023-05-10T04:25:50.578Z,101270.06
2023-05-10T04:31:18.657Z,101273.94
2023-05-10T04:36:41.008Z,101259.84
2023-05-10T04:42:04.129Z,101259.22
2023-05-10T04:47:27.361Z,101264.02
2023-05-10T04:52:49.671Z,101256.55
2023-05-10T04:58:11.964Z,101260.20
2023-05-10T05:03:34.841Z,101260.61
2023-05-10T05:08:57.292Z,101264.29
2023-05-10T05:14:21.229Z,101251.17
2023-05-10T05:19:44.764Z,101252.78
2023-05-10T05:25:08.592Z,101248.50
2023-05-10T05:30:31.026Z,101253.94
2023-05-10T05:35:55.821Z,101252.56
2023-05-10T05:41:18.418Z,101251.52
2023-05-10T05:46:40.727Z,101248.81
2023-05-10T05:52:04.765Z,101240.63
2023-05-10T05:57:27.886Z,101236.17
2023-05-10T06:02:50.263Z,101234.70
2023-05-10T06:08:13.520Z,101238.04
2023-05-10T06:13:36.675Z,101242.40
2023-05-10T06:18:59.017Z,101247.73
2023-05-10T06:24:21.356Z,101247.99
2023-05-10T06:29:43.686Z,101252.34
2023-05-10T06:35:05.950Z,101251.25
2023-05-10T06:40:28.752Z,101244.21
2023-05-10T06:45:51.076Z,101244.01
2023-05-10T06:51:13.370Z,101240.60
2023-05-10T06:56:35.780Z,101228.47
2023-05-10T07:01:58.162Z,101235.50
2023-05-10T07:07:21.292Z,101232.28
2023-05-10T07:12:44.578Z,101234.23
2023-05-10T07:18:07.920Z,101239.70
2023-05-10T07:23:31.246Z,101232.13
2023-05-10T07:28:53.681Z,101234.28
2023-05-10T07:34:16.710Z,101227.38
2023-05-10T07:39:39.827Z,101226.34
2023-05-10T07:45:02.271Z,101217.77
2023-05-10T07:50:25.556Z,101227.52
2023-05-10T07:55:48.090Z,101227.52
2023-05-10T08:01:10.724Z,101220.00
2023-05-10T08:06:34.685Z,101223.09
2023-05-10T08:11:57.913Z,101214.48
2023-05-10T08:17:22.127Z,101224.73
2023-05-10T08:22:44.728Z,101209.36
2023-05-10T08:28:07.220Z,101216.34
2023-05-10T08:33:32.092Z,101210.97
2023-05-10T08:38:54.968Z,101209.05
2023-05-10T08:44:19.765Z,101202.61
2023-05-10T08:49:44.412Z,101213.47
2023-05-10T08:55:07.447Z,101201.91
2023-05-10T09:00:32.041Z,101208.62
2023-05-10T09:05:59.726Z,101217.47
2023-05-10T09:11:22.989Z,101202.58
2023-05-10T09:16:47.991Z,101209.70
2023-05-10T09:22:10.324Z,101203.48
2023-05-10T09:27:34.710Z,101196.84
2023-05-10T09:33:01.971Z,101191.14
2023-05-10T09:38:24.936Z,101201.54
2023-05-10T09:43:48.780Z,101196.06
2023-05-10T09:49:12.871Z,101192.72
2023-05-10T09:54:36.419Z,101197.05
2023-05-10T10:00:01.021Z,101185.24
2023-05-10T10:05:25.308Z,101187.78
2023-05-10T10:10:48.693Z,101184.61
2023-05-10T10:16:12.105Z,101163.81
2023-05-10T10:21:35.856Z,101163.72
2023-05-10T10:27:00.351Z,101170.03
2023-05-10T10:32:55.828Z,101156.57
2023-05-10T10:38:20.339Z,101159.02
2023-05-10T10:43:43.549Z,101151.27
2023-05-10T10:49:24.531Z,101150.46
2023-05-10T10:54:49.066Z,101157.98
2023-05-10T11:00:36.830Z,101108.27
2023-05-10T11:06:03.313Z,101150.56
2023-05-10T11:11:28.657Z,101129.23
2023-05-10T11:16:56.439Z,101160.27
2023-05-10T11:22:27.525Z,101148.55
2023-05-10T11:27:51.308Z,101145.31
2023-05-10T11:33:14.028Z,101132.48
2023-05-10T11:38:36.817Z,101142.07
2023-05-10T11:44:01.110Z,101126.45
2023-05-10T11:49:25.038Z,101128.77
2023-05-10T11:54:55.103Z,101134.72
2023-05-10T12:00:19.456Z,101124.16
2023-05-10T12:05:44.346Z,101124.97
2023-05-10T12:11:15.639Z,101123.56
2023-05-10T12:16:41.254Z,101122.23
2023-05-10T12:22:03.976Z,101116.45
2023-05-10T12:33:12.311Z,101113.40
2023-05-10T12:38:54.084Z,101114.07
2023-05-10T12:44:16.387Z,101124.48
2023-05-10T12:49:38.988Z,101115.95
2023-05-10T12:55:01.799Z,101112.38
2023-05-10T13:00:25.415Z,101119.11
2023-05-10T13:05:47.927Z,101094.82
2023-05-10T13:11:11.037Z,101110.45
2023-05-10T13:16:33.605Z,101105.91
2023-05-10T13:21:56.574Z,101117.12
2023-05-10T13:27:19.598Z,101104.14
2023-05-10T13:32:42.339Z,101099.89
2023-05-10T13:38:04.902Z,101092.00
2023-05-10T13:43:27.863Z,101079.27
2023-05-10T13:48:51.119Z,101077.05
2023-05-10T13:54:13.812Z,101070.63
2023-05-10T13:59:36.912Z,101065.86
2023-05-10T14:05:02.790Z,101060.52
2023-05-10T14:10:27.184Z,101053.54
2023-05-10T14:15:49.669Z,101071.95
2023-05-10T14:21:12.124Z,101066.80
2023-05-10T14:26:35.508Z,101054.08
2023-05-10T14:31:57.915Z,101047.64
2023-05-10T14:37:21.288Z,101040.88
2023-05-10T14:42:44.839Z,101050.28
2023-05-10T14:48:09.436Z,101055.43
2023-05-10T14:53:32.150Z,101050.49
2023-05-10T14:58:55.826Z,101053.59
2023-05-10T15:04:19.163Z,101056.98
2023-05-10T15:09:42.322Z,101054.73
2023-05-10T15:15:05.129Z,101036.68
2023-05-10T15:20:28.077Z,101035.52
2023-05-10T15:25:52.045Z,101033.56
2023-05-10T15:31:14.849Z,101035.83
2023-05-10T15:36:37.378Z,101035.26
2023-05-10T15:42:00.248Z,101041.15
2023-05-10T15:47:22.644Z,101040.48
2023-05-10T15:52:45.553Z,101029.09
2023-05-10T15:58:08.013Z,101030.55
2023-05-10T16:03:31.177Z,101044.91
2023-05-10T16:08:54.668Z,101036.49
2023-05-10T16:14:17.682Z,101040.37
2023-05-10T16:19:40.075Z,101037.30
2023-05-10T16:25:04.506Z,101037.23
2023-05-10T16:30:29.318Z,101034.68
2023-05-10T16:35:51.926Z,101046.53
2023-05-10T16:41:17.677Z,101044.16
2023-05-10T16:46:41.274Z,101052.36
2023-05-10T16:52:03.634Z,101041.05
2023-05-10T16:57:26.049Z,101048.53
2023-05-10T17:02:49.643Z,101048.67
2023-05-10T17:08:12.748Z,101050.96
2023-05-10T17:13:35.883Z,101053.55
2023-05-10T17:19:01.375Z,101054.97
2023-05-10T17:24:24.103Z,101068.83
2023-05-10T17:29:46.444Z,101070.27
2023-05-10T17:35:09.245Z,101076.59
2023-05-10T17:40:32.348Z,101072.23
2023-05-10T17:45:56.385Z,101071.90
2023-05-10T17:51:18.952Z,101081.13
2023-05-10T17:56:41.361Z,101081.84
2023-05-10T18:02:03.802Z,101084.81
2023-05-10T18:07:28.692Z,101092.21
2023-05-10T18:12:54.027Z,101105.09
2023-05-10T18:18:17.746Z,101111.05
2023-05-10T18:23:40.140Z,101109.38
2023-05-10T18:29:02.862Z,101109.99
2023-05-10T18:34:25.713Z,101120.55
2023-05-10T18:39:51.366Z,101125.64
2023-05-10T18:45:14.558Z,101135.59
2023-05-10T18:50:37.023Z,101143.42
2023-05-10T18:56:02.576Z,101144.19
2023-05-10T19:01:24.863Z,101152.13
2023-05-10T19:06:47.748Z,101145.10
2023-05-10T19:12:10.584Z,101152.13
2023-05-10T19:17:34.329Z,101157.69
2023-05-10T19:23:09.253Z,101165.74
2023-05-10T19:28:21.570Z,101165.16
2023-05-10T19:33:43.936Z,101169.88
2023-05-10T19:39:06.301Z,101172.67
2023-05-10T19:44:29.560Z,101179.14
2023-05-10T19:49:51.997Z,101181.87
2023-05-10T19:55:15.152Z,101175.45
2023-05-10T20:00:38.317Z,101181.61
2023-05-10T20:06:00.777Z,101194.72
2023-05-10T20:11:23.773Z,101196.09
2023-05-10T20:16:46.350Z,101196.34
2023-05-10T20:22:09.900Z,101200.74
2023-05-10T20:27:32.859Z,101200.02
2023-05-10T20:32:55.328Z,101202.95
2023-05-10T20:38:18.422Z,101203.71
2023-05-10T20:43:40.761Z,101201.36
2023-05-10T20:49:03.686Z,101207.36
2023-05-10T20:54:27.649Z,101209.92
2023-05-10T20:59:50.257Z,101213.26
2023-05-10T21:05:12.836Z,101216.67
2023-05-10T21:10:35.175Z,101228.91
2023-05-10T21:15:57.539Z,101223.86
2023-05-10T21:21:19.836Z,101225.36
2023-05-10T21:26:42.771Z,101241.84
2023-05-10T21:32:05.081Z,101240.63
2023-05-10T21:37:28.257Z,101242.19
2023-05-10T21:42:50.778Z,101236.22
2023-05-10T21:48:13.674Z,101241.33
2023-05-10T21:53:36.082Z,101234.67
2023-05-10T21:58:58.400Z,101239.23
2023-05-10T22:04:21.043Z,101242.72
2023-05-10T22:09:44.391Z,101243.70
2023-05-10T22:15:10.269Z,101249.77
2023-05-10T22:20:30.974Z,101247.50
2023-05-10T22:25:53.265Z,101260.27
2023-05-10T22:31:16.583Z,101259.30
2023-05-10T22:36:39.029Z,101263.95
2023-05-10T22:42:01.375Z,101255.79
2023-05-10T22:47:23.773Z,101263.42
2023-05-10T22:52:47.192Z,101267.63
2023-05-10T22:58:09.698Z,101273.31
2023-05-10T23:03:31.923Z,101272.34
2023-05-10T23:08:54.468Z,101282.59
2023-05-10T23:14:17.261Z,101276.35
2023-05-10T23:19:39.574Z,101280.73
2023-05-10T23:25:01.924Z,101284.05
2023-05-10T23:30:24.915Z,101283.19
2023-05-10T23:35:47.228Z,101294.06
2023-05-10T23:41:09.601Z,101286.84
2023-05-10T23:46:32.016Z,101290.13
2023-05-10T23:51:54.472Z,101293.19
2023-05-10T23:57:16.840Z,101293.26
